Terminal Aerodrome Forecast
Issued by NWS

Home | Current Version | Previous Version | Text Only | Print | Product List | Glossary Off
Versions: 1 2 3 4 5 6 7 8 9 10 11 12 13 14 15 16 17 18

480
FTUS43 KBIS 050248 AAA
TAFDIK
TAF AMD
KDIK 050248Z 0503/0524 26006KT P6SM VCSH OVC040
      TEMPO 0504/0507 2SM -SN BKN015
     FM050900 29009KT P6SM VCSH OVC015
     FM051100 31010KT P6SM OVC008
     FM051700 29013KT P6SM BKN050
     FM051800 29013KT P6SM SCT100=

USA.gov is the U.S. government's official web portal to all federal, state and local government web resources and services.